Time;durP1;ratioP1;P1;durP2;ratioP2;P2;SDS_P1;SDS_P2;PMS_P1;PMS_P2;Temp;Humidity;BMP_temperature;BMP_pressure;BME280_temperature;BME280_humidity;BME280_pressure;Samples;Min_cycle;Max_cycle;Signal;HPM_P1;HPM_P2
2022/01/24 00:01:37;;;;;;;22.90;13.68;;;-2.70;99.90;;;;;;5027616;28;20226;-78
2022/01/24 00:04:05;;;;;;;22.27;11.30;;;-2.70;99.90;;;;;;5013735;28;20501;-78
2022/01/24 00:06:33;;;;;;;24.17;12.43;;;-2.70;99.90;;;;;;5002980;28;20407;-78
2022/01/24 00:09:01;;;;;;;26.77;12.93;;;-2.70;99.90;;;;;;4972842;28;20110;-78
2022/01/24 00:11:39;;;;;;;28.83;13.30;;;-2.70;99.90;;;;;;4992786;28;20053;-78
2022/01/24 00:14:46;;;;;;;23.98;12.27;;;-2.60;99.90;;;;;;5000384;28;20505;-78
2022/01/24 00:17:10;;;;;;;29.38;13.05;;;-2.50;99.90;;;;;;5005432;28;20034;-78
2022/01/24 00:27:54;;;;;;;24.75;11.70;;;-2.50;99.90;;;;;;4989066;28;20573;-77
2022/01/24 00:30:23;;;;;;;20.83;11.00;;;-2.40;99.90;;;;;;5012133;28;20049;-76
2022/01/24 00:32:50;;;;;;;35.85;21.48;;;-2.40;99.90;;;;;;5014760;28;20053;-77
2022/01/24 00:35:18;;;;;;;20.75;10.35;;;-2.40;99.90;;;;;;5010856;28;20057;-76
2022/01/24 00:37:45;;;;;;;28.58;11.98;;;-2.50;99.90;;;;;;4979094;28;20144;-77
2022/01/24 00:40:13;;;;;;;27.92;11.27;;;-2.50;99.90;;;;;;5020920;28;20597;-77
2022/01/24 00:42:51;;;;;;;25.00;12.10;;;-2.40;99.90;;;;;;5028153;28;20049;-77
2022/01/24 00:45:30;;;;;;;26.08;12.10;;;-2.50;99.90;;;;;;5013106;28;20048;-77
2022/01/24 00:54:03;;;;;;;29.13;12.52;;;-2.40;99.90;;;;;;5065773;28;20044;-76
2022/01/24 00:56:30;;;;;;;28.67;13.43;;;-2.50;99.90;;;;;;5075799;28;20048;-77
2022/01/24 00:58:58;;;;;;;28.92;12.98;;;-2.50;99.90;;;;;;5088062;28;20052;-78
2022/01/24 01:01:25;;;;;;;25.65;10.50;;;-2.50;99.90;;;;;;5084516;28;20079;-78
2022/01/24 01:03:52;;;;;;;26.75;12.55;;;-2.40;99.90;;;;;;5084484;28;20052;-78
2022/01/24 01:06:21;;;;;;;23.58;12.27;;;-2.40;99.90;;;;;;5066634;28;20053;-78
2022/01/24 01:19:49;;;;;;;30.05;14.45;;;-2.40;99.90;;;;;;5069773;28;20057;-77
2022/01/24 01:22:17;;;;;;;32.85;15.05;;;-2.40;99.90;;;;;;5067068;28;20041;-78
2022/01/24 01:24:53;;;;;;;32.88;14.05;;;-2.40;99.90;;;;;;5066106;28;20049;-78
2022/01/24 01:27:25;;;;;;;34.28;14.13;;;-2.40;99.90;;;;;;5083431;28;20134;-77
2022/01/24 01:29:58;;;;;;;30.55;13.63;;;-2.40;99.90;;;;;;5067913;28;20484;-77
2022/01/24 01:32:46;;;;;;;26.00;12.82;;;-2.30;99.90;;;;;;5072779;28;20048;-77
2022/01/24 01:35:31;;;;;;;31.25;12.45;;;-2.30;99.90;;;;;;5085864;28;20228;-77
2022/01/24 01:57:21;;;;;;;41.08;15.23;;;-2.60;99.90;;;;;;5074813;28;20048;-77
2022/01/24 01:59:49;;;;;;;34.25;13.55;;;-2.70;99.90;;;;;;5064951;28;20493;-76
2022/01/24 02:02:17;;;;;;;31.05;12.77;;;-2.70;99.90;;;;;;5036275;28;20561;-77
2022/01/24 02:04:44;;;;;;;30.42;13.77;;;-2.70;99.90;;;;;;5051119;28;20154;-76
2022/01/24 02:07:12;;;;;;;30.60;12.82;;;-2.70;99.90;;;;;;5052770;28;20048;-76
2022/01/24 02:09:43;;;;;;;33.33;14.38;;;-2.70;99.90;;;;;;5057726;28;20048;-77
2022/01/24 02:12:13;;;;;;;31.00;13.60;;;-2.70;99.90;;;;;;5048837;28;20044;-76
2022/01/24 02:14:46;;;;;;;28.52;12.43;;;-2.70;99.90;;;;;;5055028;28;20139;-77
2022/01/24 02:17:20;;;;;;;26.25;11.90;;;-2.60;99.90;;;;;;5067060;28;20052;-76
2022/01/24 02:20:04;;;;;;;33.55;13.80;;;-2.60;99.90;;;;;;5052724;28;20049;-76
2022/01/24 02:22:46;;;;;;;32.17;14.15;;;-2.60;99.90;;;;;;5059917;28;20148;-77
2022/01/24 02:25:25;;;;;;;34.70;13.75;;;-2.60;99.90;;;;;;5062700;28;20053;-76
2022/01/24 02:28:00;;;;;;;30.35;12.82;;;-2.60;99.90;;;;;;5053214;28;20056;-76
2022/01/24 02:30:49;;;;;;;36.92;13.52;;;-2.60;99.90;;;;;;5064514;28;20052;-76
2022/01/24 02:33:17;;;;;;;35.63;13.90;;;-2.60;99.90;;;;;;5058087;28;20045;-76
2022/01/24 02:35:45;;;;;;;35.95;13.70;;;-2.60;99.90;;;;;;5064273;28;20045;-76
2022/01/24 02:38:24;;;;;;;32.58;13.90;;;-2.60;99.90;;;;;;5060065;28;20114;-76
2022/01/24 02:49:02;;;;;;;28.10;13.25;;;-2.50;99.90;;;;;;5070271;28;20051;-77
2022/01/24 02:51:46;;;;;;;30.42;13.80;;;-2.50;99.90;;;;;;5057282;28;20138;-77
2022/01/24 02:54:27;;;;;;;;;;;-2.50;99.90;;;;;;5066665;28;20412;-77
2022/01/24 02:56:54;;;;;;;28.23;11.05;;;-2.50;99.90;;;;;;5052932;28;19983;-77
2022/01/24 02:59:22;;;;;;;28.20;12.10;;;-2.40;99.90;;;;;;5053760;28;20497;-77
2022/01/24 03:01:50;;;;;;;29.92;12.93;;;-2.40;99.90;;;;;;5069569;28;20053;-76
2022/01/24 03:04:18;;;;;;;27.75;13.48;;;-2.40;99.90;;;;;;5061033;28;20592;-77
2022/01/24 03:06:46;;;;;;;30.02;13.23;;;-2.40;99.90;;;;;;5075254;28;20057;-76
2022/01/24 03:09:14;;;;;;;32.33;13.50;;;-2.40;99.90;;;;;;5065384;28;20049;-77
2022/01/24 03:12:04;;;;;;;28.35;13.23;;;-2.40;99.90;;;;;;5055047;28;20149;-77
2022/01/24 03:14:36;;;;;;;31.90;13.90;;;-2.40;99.90;;;;;;5051564;28;20604;-77
2022/01/24 03:17:06;;;;;;;33.17;14.35;;;-2.40;99.90;;;;;;5051233;28;20053;-76
2022/01/24 03:19:33;;;;;;;28.45;13.98;;;-2.40;99.90;;;;;;5067407;28;20106;-77
2022/01/24 03:22:01;;;;;;;30.58;13.60;;;-2.50;99.90;;;;;;5055411;28;20045;-77
2022/01/24 03:24:28;;;;;;;30.30;13.15;;;-2.40;99.90;;;;;;5063809;28;20059;-78
2022/01/24 03:26:57;;;;;;;26.70;14.23;;;-2.40;99.90;;;;;;5059955;28;20044;-76
2022/01/24 03:29:24;;;;;;;28.10;13.23;;;-2.40;99.90;;;;;;5069418;28;20456;-77
2022/01/24 03:31:51;;;;;;;29.33;13.38;;;-2.30;99.90;;;;;;5066629;28;20513;-77
2022/01/24 03:34:19;;;;;;;34.60;15.00;;;-2.30;99.90;;;;;;5050898;28;20048;-77
2022/01/24 03:36:46;;;;;;;27.02;13.40;;;-2.20;99.90;;;;;;5057799;28;20531;-77
2022/01/24 03:39:13;;;;;;;23.95;12.13;;;-2.20;99.90;;;;;;5062419;28;20048;-78
2022/01/24 03:41:41;;;;;;;29.42;12.85;;;-2.20;99.90;;;;;;5066340;28;20051;-78
2022/01/24 03:44:13;;;;;;;30.52;13.38;;;-2.20;99.90;;;;;;5057999;28;20315;-78
2022/01/24 03:46:59;;;;;;;28.80;13.43;;;-2.20;99.90;;;;;;5062352;28;20051;-77
2022/01/24 03:52:12;;;;;;;27.77;12.20;;;-2.10;99.90;;;;;;5055566;28;20531;-78
2022/01/24 03:54:43;;;;;;;26.10;12.60;;;-2.10;99.90;;;;;;5059292;28;20505;-77
2022/01/24 03:57:11;;;;;;;26.92;13.32;;;-2.00;99.90;;;;;;5050189;28;20067;-77
2022/01/24 03:59:40;;;;;;;28.60;12.70;;;-1.90;99.90;;;;;;5051220;28;20065;-77
2022/01/24 04:02:08;;;;;;;25.98;12.93;;;-1.90;99.90;;;;;;5054152;28;20040;-76
2022/01/24 04:04:35;;;;;;;26.98;13.18;;;-1.90;99.90;;;;;;5067333;28;20524;-77
2022/01/24 04:07:04;;;;;;;25.08;12.02;;;-1.90;99.90;;;;;;5043511;28;20182;-76
2022/01/24 04:09:31;;;;;;;24.75;12.18;;;-1.90;99.90;;;;;;5069961;28;20063;-77
2022/01/24 04:11:59;;;;;;;25.13;12.35;;;-1.90;99.90;;;;;;5067804;28;20405;-84
2022/01/24 04:14:36;;;;;;;25.67;12.65;;;-1.90;99.90;;;;;;5056708;28;20072;-79
2022/01/24 04:17:20;;;;;;;27.90;12.27;;;-1.90;99.90;;;;;;5068932;28;20144;-79
2022/01/24 04:22:48;;;;;;;22.05;10.65;;;-1.80;99.90;;;;;;5052365;28;20190;-81
2022/01/24 04:25:22;;;;;;;21.00;11.55;;;-1.80;99.90;;;;;;5059926;28;20197;-80
2022/01/24 04:27:51;;;;;;;21.80;10.57;;;-1.70;99.90;;;;;;5067910;28;20048;-81
2022/01/24 04:30:19;;;;;;;21.25;10.27;;;-1.70;99.90;;;;;;5060048;28;20045;-81
2022/01/24 04:32:48;;;;;;;22.45;11.05;;;-1.70;99.90;;;;;;5058071;28;20073;-78
2022/01/24 04:35:16;;;;;;;25.85;10.90;;;-1.70;99.90;;;;;;5051154;28;20061;-74
2022/01/24 04:37:43;;;;;;;22.65;10.90;;;-1.60;99.90;;;;;;5051224;28;20136;-75
2022/01/24 04:40:12;;;;;;;22.50;10.65;;;-1.60;99.90;;;;;;5050443;28;20052;-75
2022/01/24 04:42:47;;;;;;;23.60;11.55;;;-1.60;99.90;;;;;;5049461;28;20064;-75
2022/01/24 04:45:36;;;;;;;25.52;12.48;;;-1.60;99.90;;;;;;5050430;28;20416;-75
2022/01/24 04:51:16;;;;;;;25.60;10.82;;;-1.50;99.90;;;;;;5066798;28;20052;-74
2022/01/24 04:56:28;;;;;;;22.88;11.27;;;-1.50;99.90;;;;;;5066036;28;20411;-78
2022/01/24 04:58:56;;;;;;;26.10;11.52;;;-1.50;99.90;;;;;;5070556;28;20056;-78
2022/01/24 05:01:23;;;;;;;19.73;9.40;;;-1.50;99.90;;;;;;5088949;28;20055;-77
2022/01/24 05:03:55;;;;;;;23.60;10.80;;;-1.50;99.90;;;;;;5087029;28;20097;-78
2022/01/24 05:06:23;;;;;;;23.57;12.10;;;-1.50;99.90;;;;;;5082075;28;20045;-80
2022/01/24 05:08:54;;;;;;;20.42;10.00;;;-1.40;99.90;;;;;;5060185;28;20044;-78
2022/01/24 05:11:32;;;;;;;22.35;11.45;;;-1.40;99.90;;;;;;5066060;28;20052;-81
2022/01/24 05:25:05;;;;;;;22.45;10.27;;;-1.40;99.90;;;;;;5030608;28;20056;-78
2022/01/24 05:27:32;;;;;;;17.55;9.02;;;-1.30;99.90;;;;;;5046563;28;20080;-80
2022/01/24 05:30:00;;;;;;;20.88;10.05;;;-1.30;99.90;;;;;;5048424;28;20520;-80
2022/01/24 05:32:27;;;;;;;24.10;10.35;;;-1.30;99.90;;;;;;5050293;28;20047;-80
2022/01/24 05:34:56;;;;;;;16.08;8.93;;;-1.30;99.90;;;;;;5049663;28;20102;-80
2022/01/24 05:37:23;;;;;;;20.15;9.63;;;-1.30;99.90;;;;;;5053163;28;20410;-78
2022/01/24 05:39:51;;;;;;;16.63;9.68;;;-1.20;99.90;;;;;;5053517;28;20057;-78
2022/01/24 05:42:21;;;;;;;16.60;7.97;;;-1.20;99.90;;;;;;5053679;28;20139;-79
2022/01/24 05:44:49;;;;;;;19.45;8.20;;;-1.20;99.90;;;;;;5061452;28;20428;-78
2022/01/24 05:47:17;;;;;;;18.17;9.00;;;-1.20;99.90;;;;;;5054097;28;20128;-85
2022/01/24 05:49:46;;;;;;;19.23;8.65;;;-1.20;99.90;;;;;;5064927;28;20052;-76
2022/01/24 05:52:15;;;;;;;15.50;8.35;;;-1.20;99.90;;;;;;5073633;28;20056;-77
2022/01/24 05:54:44;;;;;;;19.90;9.07;;;-1.30;99.90;;;;;;5060640;28;20061;-78
2022/01/24 05:57:12;;;;;;;13.70;8.18;;;-1.30;99.90;;;;;;5053759;28;20110;-78
2022/01/24 05:59:39;;;;;;;16.48;8.77;;;-1.30;99.90;;;;;;5053364;28;20052;-78
2022/01/24 06:02:07;;;;;;;14.93;7.95;;;-1.30;99.90;;;;;;5051329;28;20049;-78
2022/01/24 06:04:35;;;;;;;13.75;7.93;;;-1.30;99.90;;;;;;5051744;28;20131;-79
2022/01/24 06:07:02;;;;;;;16.38;8.88;;;-1.30;99.90;;;;;;5052520;28;20055;-78
2022/01/24 06:09:31;;;;;;;14.80;8.75;;;-1.30;99.90;;;;;;5050879;28;20090;-78
2022/01/24 06:11:59;;;;;;;16.80;8.63;;;-1.30;99.90;;;;;;5055870;28;20539;-78
2022/01/24 06:14:29;;;;;;;18.10;9.27;;;-1.30;99.90;;;;;;5071957;28;20106;-78
2022/01/24 06:16:56;;;;;;;17.15;7.88;;;-1.30;99.90;;;;;;5070090;28;20155;-78
2022/01/24 06:19:24;;;;;;;15.68;8.30;;;-1.20;99.90;;;;;;5071815;28;20147;-77
2022/01/24 06:21:51;;;;;;;17.42;8.52;;;-1.30;99.90;;;;;;5054650;28;20044;-78
2022/01/24 06:24:18;;;;;;;16.25;8.77;;;-1.20;99.90;;;;;;5051720;28;20075;-80
2022/01/24 06:26:49;;;;;;;13.85;8.50;;;-1.20;99.90;;;;;;5060585;28;20349;-79
2022/01/24 06:29:18;;;;;;;16.60;8.77;;;-1.20;99.90;;;;;;5067872;28;20051;-78
2022/01/24 06:31:45;;;;;;;21.70;8.90;;;-1.20;99.90;;;;;;5061752;28;20123;-78
2022/01/24 06:34:16;;;;;;;13.13;7.53;;;-1.20;99.90;;;;;;5058414;28;20052;-78
2022/01/24 06:36:44;;;;;;;16.77;8.38;;;-1.20;99.90;;;;;;5060924;28;20060;-78
2022/01/24 06:39:14;;;;;;;12.20;7.53;;;-1.20;99.90;;;;;;5057360;28;20125;-78
2022/01/24 06:41:43;;;;;;;15.38;8.77;;;-1.10;99.90;;;;;;5061670;28;20049;-78
2022/01/24 06:44:15;;;;;;;15.00;8.05;;;-1.10;99.90;;;;;;5059854;28;20498;-79
2022/01/24 06:46:44;;;;;;;12.82;7.10;;;-1.20;99.90;;;;;;5062155;28;20673;-78
2022/01/24 06:49:12;;;;;;;18.27;8.18;;;-1.10;99.90;;;;;;5059044;28;20041;-79
2022/01/24 06:51:39;;;;;;;17.45;9.63;;;-1.20;99.90;;;;;;5054574;28;20055;-79
2022/01/24 06:54:06;;;;;;;15.50;7.93;;;-1.20;99.90;;;;;;5043266;28;20049;-77
2022/01/24 06:56:34;;;;;;;16.65;9.30;;;-1.10;99.90;;;;;;5060458;28;20045;-77
2022/01/24 06:59:01;;;;;;;20.20;8.80;;;-1.10;99.90;;;;;;5059684;28;20090;-77
2022/01/24 07:01:30;;;;;;;18.15;10.32;;;-1.10;99.90;;;;;;5069965;28;20040;-78
2022/01/24 07:03:58;;;;;;;18.67;9.73;;;-1.10;99.90;;;;;;5070522;28;20597;-79
2022/01/24 07:06:25;;;;;;;14.02;8.93;;;-1.10;99.90;;;;;;5067344;28;20402;-78
2022/01/24 07:08:55;;;;;;;15.85;9.15;;;-1.10;99.90;;;;;;5049578;28;20055;-78
2022/01/24 07:11:22;;;;;;;18.88;8.27;;;-1.10;99.90;;;;;;5064358;28;20048;-78
2022/01/24 07:13:50;;;;;;;19.38;9.30;;;-1.10;99.90;;;;;;5069478;28;20053;-79
2022/01/24 07:16:18;;;;;;;18.17;8.63;;;-1.00;99.90;;;;;;5070558;28;20432;-79
2022/01/24 07:19:00;;;;;;;17.05;8.02;;;-1.00;99.90;;;;;;5070827;28;20432;-77
2022/01/24 07:21:28;;;;;;;12.20;6.90;;;-1.00;99.90;;;;;;5067013;28;20066;-77
2022/01/24 07:23:58;;;;;;;12.52;7.45;;;-1.00;99.90;;;;;;5064058;28;20059;-78
2022/01/24 07:26:25;;;;;;;10.50;6.78;;;-1.00;99.90;;;;;;5051363;28;20080;-76
2022/01/24 07:28:53;;;;;;;12.27;7.70;;;-0.90;99.90;;;;;;5050871;28;20049;-76
2022/01/24 07:31:20;;;;;;;12.93;7.53;;;-0.90;99.90;;;;;;5051001;28;20052;-75
2022/01/24 07:33:51;;;;;;;11.52;7.53;;;-0.90;99.90;;;;;;5050225;28;20072;-75
2022/01/24 07:36:18;;;;;;;16.67;9.15;;;-0.90;99.90;;;;;;5058861;28;20056;-75
2022/01/24 07:38:51;;;;;;;14.23;7.95;;;-0.90;99.90;;;;;;5069006;28;20126;-76
2022/01/24 07:41:26;;;;;;;13.15;7.95;;;-0.80;99.90;;;;;;5070188;28;20121;-76
2022/01/24 07:43:53;;;;;;;8.90;6.53;;;-0.80;99.90;;;;;;5070422;28;20655;-76
2022/01/24 07:46:21;;;;;;;14.07;8.02;;;-0.80;99.90;;;;;;5069780;28;20075;-76
2022/01/24 07:48:50;;;;;;;15.65;7.05;;;-0.80;99.90;;;;;;5068987;28;20051;-76
2022/01/24 07:51:18;;;;;;;11.88;6.75;;;-0.80;99.90;;;;;;5070282;28;20056;-76
2022/01/24 07:53:46;;;;;;;14.55;8.25;;;-0.80;99.90;;;;;;5068666;28;20067;-76
2022/01/24 07:56:14;;;;;;;11.05;7.15;;;-0.80;99.90;;;;;;5068644;28;20048;-77
2022/01/24 07:58:43;;;;;;;17.58;8.52;;;-0.80;99.90;;;;;;5069826;28;20106;-74
2022/01/24 08:01:10;;;;;;;11.95;7.10;;;-0.70;99.90;;;;;;5068820;28;20056;-76
2022/01/24 08:03:38;;;;;;;10.38;6.28;;;-0.70;99.90;;;;;;5057302;28;20045;-76
2022/01/24 08:06:06;;;;;;;11.85;6.07;;;-0.70;99.90;;;;;;5068463;28;20050;-77
2022/01/24 08:08:34;;;;;;;13.93;7.65;;;-0.70;99.90;;;;;;5068412;28;20141;-77
2022/01/24 08:11:01;;;;;;;12.02;6.28;;;-0.70;99.90;;;;;;5068726;28;20069;-76
2022/01/24 08:13:29;;;;;;;13.50;6.88;;;-0.60;99.90;;;;;;5059653;28;20064;-75
2022/01/24 08:15:56;;;;;;;13.32;7.13;;;-0.60;99.90;;;;;;5053071;28;20069;-75
2022/01/24 08:18:24;;;;;;;17.65;9.23;;;-0.60;99.90;;;;;;5065610;28;20060;-76
2022/01/24 08:20:51;;;;;;;17.52;8.40;;;-0.60;99.90;;;;;;5048556;28;20464;-76
2022/01/24 08:23:21;;;;;;;13.52;6.97;;;-0.50;99.90;;;;;;5049512;28;20140;-76
2022/01/24 08:25:48;;;;;;;18.60;6.80;;;-0.50;99.90;;;;;;5050139;28;20056;-77
2022/01/24 08:28:15;;;;;;;18.50;9.07;;;-0.50;99.90;;;;;;5050068;28;20052;-78
2022/01/24 08:30:45;;;;;;;11.25;7.07;;;-0.50;99.90;;;;;;5052220;28;20057;-78
2022/01/24 08:33:12;;;;;;;13.98;6.63;;;-0.50;99.90;;;;;;5047279;28;20045;-81
2022/01/24 08:35:39;;;;;;;18.00;9.73;;;-0.50;99.90;;;;;;5049344;28;20076;-83
2022/01/24 08:38:07;;;;;;;12.85;6.93;;;-0.50;99.90;;;;;;5049545;28;20045;-81
2022/01/24 08:40:38;;;;;;;11.52;6.22;;;-0.40;99.90;;;;;;5066234;28;20076;-82
2022/01/24 08:43:07;;;;;;;9.40;6.10;;;-0.40;99.90;;;;;;5068028;28;20040;-77
2022/01/24 08:45:50;;;;;;;10.00;6.00;;;-0.40;99.90;;;;;;5059107;28;20417;-82
2022/01/24 08:48:22;;;;;;;16.33;8.68;;;-0.30;99.90;;;;;;5049812;28;20044;-77
2022/01/24 08:50:52;;;;;;;11.75;6.57;;;-0.30;99.90;;;;;;5048002;28;20057;-79
2022/01/24 08:53:20;;;;;;;10.40;6.68;;;-0.30;99.90;;;;;;5049600;28;20057;-77
2022/01/24 08:55:48;;;;;;;11.65;6.80;;;-0.30;99.90;;;;;;5048252;28;20073;-78
2022/01/24 08:58:17;;;;;;;15.55;7.47;;;-0.30;99.90;;;;;;5049186;28;20063;-79
2022/01/24 09:00:46;;;;;;;15.13;7.38;;;-0.30;99.90;;;;;;5049821;28;20048;-79
2022/01/24 09:03:15;;;;;;;13.82;7.38;;;-0.30;99.90;;;;;;5050487;28;20207;-78
2022/01/24 09:05:42;;;;;;;11.02;7.82;;;-0.30;99.90;;;;;;5048675;28;20049;-79
2022/01/24 09:08:10;;;;;;;14.27;7.50;;;-0.20;99.90;;;;;;5068452;28;20048;-76
2022/01/24 09:10:40;;;;;;;15.98;8.98;;;-0.20;99.90;;;;;;5068328;28;20541;-81
2022/01/24 09:13:09;;;;;;;15.48;7.85;;;-0.20;99.90;;;;;;5072440;28;20056;-81
2022/01/24 09:15:37;;;;;;;11.50;7.07;;;-0.10;99.90;;;;;;5072878;28;20523;-82
2022/01/24 09:18:05;;;;;;;14.40;8.45;;;-0.10;99.90;;;;;;5073847;28;20084;-84
2022/01/24 09:20:34;;;;;;;10.30;6.70;;;-0.10;99.90;;;;;;5067159;28;20374;-83
2022/01/24 09:23:02;;;;;;;11.38;6.28;;;-0.10;99.90;;;;;;5056722;28;20107;-79
2022/01/24 09:25:29;;;;;;;15.63;8.95;;;0.00;99.90;;;;;;5058153;28;20053;-79
2022/01/24 09:27:57;;;;;;;14.55;7.53;;;-0.10;99.90;;;;;;5065886;28;20477;-79
2022/01/24 09:30:26;;;;;;;10.48;6.43;;;-0.10;99.90;;;;;;5067284;28;20045;-82
2022/01/24 09:32:54;;;;;;;12.05;8.00;;;0.00;99.90;;;;;;5050474;28;20456;-81
2022/01/24 09:35:22;;;;;;;8.85;5.70;;;-0.10;99.90;;;;;;5051381;28;20477;-80
2022/01/24 09:37:50;;;;;;;17.50;15.85;;;0.00;99.90;;;;;;5061261;28;20125;-81
2022/01/24 09:40:19;;;;;;;9.15;5.72;;;0.00;99.90;;;;;;5067306;28;20039;-84
2022/01/24 09:42:48;;;;;;;9.05;6.78;;;0.00;99.90;;;;;;5056032;28;20091;-83
2022/01/24 09:45:19;;;;;;;13.65;6.72;;;0.10;99.90;;;;;;5053437;28;20459;-84
2022/01/24 09:47:48;;;;;;;10.98;6.88;;;0.10;99.90;;;;;;5067640;28;20455;-82
2022/01/24 09:50:18;;;;;;;11.82;6.07;;;0.10;99.90;;;;;;5072726;28;20135;-82
2022/01/24 09:52:49;;;;;;;12.30;6.60;;;0.10;99.90;;;;;;5054454;28;20102;-83
2022/01/24 09:55:21;;;;;;;14.65;7.95;;;0.10;99.90;;;;;;5073880;28;20483;-82
2022/01/24 09:57:50;;;;;;;14.18;7.22;;;0.10;99.90;;;;;;5072305;28;20083;-86
2022/01/24 10:00:20;;;;;;;10.52;5.80;;;0.10;99.90;;;;;;5072338;28;20140;-84
2022/01/24 10:02:52;;;;;;;18.63;6.78;;;0.00;99.90;;;;;;5072448;28;20052;-85
2022/01/24 10:05:23;;;;;;;11.55;6.50;;;0.00;99.90;;;;;;5072001;28;20052;-86
2022/01/24 10:07:56;;;;;;;14.60;7.10;;;0.00;99.90;;;;;;5055990;28;20048;-85
2022/01/24 10:10:35;;;;;;;15.40;6.53;;;0.00;99.90;;;;;;5060293;28;20060;-85
2022/01/24 10:16:26;;;;;;;;;;;0.00;99.90;;;;;;5071405;28;20049;-83
2022/01/24 10:19:08;;;;;;;14.13;5.80;;;0.00;99.90;;;;;;5072367;28;21182;-86
2022/01/24 10:21:42;;;;;;;10.88;6.53;;;0.00;99.90;;;;;;5071588;28;20160;-84
2022/01/24 10:24:13;;;;;;;12.32;6.60;;;0.00;99.90;;;;;;5065631;28;20255;-88
2022/01/24 10:26:40;;;;;;;7.53;5.55;;;0.00;99.90;;;;;;5051105;28;20109;-83
2022/01/24 10:29:14;;;;;;;9.52;5.97;;;0.00;99.90;;;;;;5036271;28;20061;-85
2022/01/24 10:32:01;;;;;;;8.35;5.68;;;0.10;99.90;;;;;;5055701;28;20067;-82
2022/01/24 10:34:35;;;;;;;14.25;7.32;;;0.10;99.90;;;;;;5059170;28;20092;-82
2022/01/24 10:37:04;;;;;;;11.70;6.10;;;0.00;99.90;;;;;;5071292;28;20052;-77
2022/01/24 10:39:54;;;;;;;8.95;6.50;;;0.10;99.90;;;;;;5054445;28;20140;-82
2022/01/24 10:42:36;;;;;;;10.23;6.93;;;0.10;99.90;;;;;;5052159;28;20073;-80
2022/01/24 10:45:14;;;;;;;10.27;6.90;;;0.10;99.90;;;;;;5052611;28;20060;-81
2022/01/24 10:47:50;;;;;;;12.73;6.47;;;0.10;99.90;;;;;;5041936;28;20462;-83
2022/01/24 10:50:28;;;;;;;12.57;7.65;;;0.20;99.90;;;;;;5063212;28;20068;-82
2022/01/24 10:53:11;;;;;;;14.10;7.40;;;0.20;99.90;;;;;;5063027;28;20525;-82
2022/01/24 10:55:43;;;;;;;18.13;7.47;;;0.30;99.90;;;;;;5061526;28;20080;-82
2022/01/24 10:58:16;;;;;;;11.57;7.00;;;0.30;99.90;;;;;;5071019;28;20151;-80
2022/01/24 11:00:47;;;;;;;9.48;6.60;;;0.30;99.90;;;;;;5070563;28;20509;-80
2022/01/24 11:03:20;;;;;;;11.20;6.25;;;0.40;99.90;;;;;;5070649;28;20048;-81
2022/01/24 11:05:49;;;;;;;11.32;5.60;;;0.40;99.90;;;;;;5070750;28;20048;-79
2022/01/24 11:08:18;;;;;;;7.95;5.43;;;0.40;99.90;;;;;;5064333;28;20076;-82
2022/01/24 11:10:48;;;;;;;8.30;5.18;;;0.30;99.90;;;;;;5059556;28;20044;-83
2022/01/24 11:13:19;;;;;;;8.82;4.78;;;0.40;99.90;;;;;;5062744;28;20049;-84
2022/01/24 11:15:56;;;;;;;10.07;5.63;;;0.40;99.90;;;;;;5049999;28;20103;-83
2022/01/24 11:18:26;;;;;;;7.07;4.47;;;0.40;99.90;;;;;;5065598;28;20072;-82
2022/01/24 11:21:02;;;;;;;8.93;5.70;;;0.30;99.90;;;;;;5067285;28;20048;-83
2022/01/24 11:23:30;;;;;;;10.48;6.28;;;0.30;99.90;;;;;;5054001;28;20550;-84
2022/01/24 11:25:58;;;;;;;8.48;4.38;;;0.20;99.90;;;;;;5051044;28;20051;-81
2022/01/24 11:28:26;;;;;;;11.18;5.50;;;0.20;99.90;;;;;;5063710;28;20413;-85
2022/01/24 11:31:01;;;;;;;11.10;5.20;;;0.20;99.90;;;;;;5068501;28;20053;-81
2022/01/24 11:33:39;;;;;;;10.13;6.22;;;0.20;99.90;;;;;;5070279;28;20049;-82
2022/01/24 11:36:11;;;;;;;18.13;13.23;;;0.20;99.90;;;;;;5071519;28;20139;-83
2022/01/24 11:38:42;;;;;;;27.35;24.63;;;0.20;99.90;;;;;;5066678;28;20064;-82
2022/01/24 11:41:22;;;;;;;11.65;6.13;;;0.30;99.90;;;;;;5055182;28;20597;-84
2022/01/24 11:43:54;;;;;;;10.35;6.30;;;0.30;99.90;;;;;;5062695;28;20056;-85
2022/01/24 11:46:43;;;;;;;15.38;7.38;;;0.30;99.90;;;;;;5054948;28;20068;-83
2022/01/24 11:49:13;;;;;;;16.08;7.43;;;0.30;99.90;;;;;;5066722;28;20044;-83
2022/01/24 11:51:45;;;;;;;13.13;5.72;;;0.20;99.90;;;;;;5062779;28;20592;-83
2022/01/24 11:54:50;;;;;;;10.30;5.97;;;0.20;99.90;;;;;;5059160;28;20125;-85
2022/01/24 11:57:28;;;;;;;12.77;6.82;;;0.20;99.90;;;;;;5041857;28;20445;-84
2022/01/24 12:00:19;;;;;;;11.35;6.60;;;0.20;99.90;;;;;;5053826;28;20056;-83
2022/01/24 12:02:52;;;;;;;10.60;6.43;;;0.20;99.90;;;;;;5057797;28;20041;-82
2022/01/24 12:05:22;;;;;;;;;;;0.20;99.90;;;;;;5062472;28;20049;-85
2022/01/24 12:07:56;;;;;;;10.25;6.10;;;0.20;99.90;;;;;;5051485;28;19929;-87
2022/01/24 12:10:47;;;;;;;16.98;8.32;;;0.20;99.90;;;;;;5069957;28;20044;-85
2022/01/24 12:13:27;;;;;;;26.88;23.00;;;0.20;99.90;;;;;;5075787;28;20056;-86
2022/01/24 12:16:01;;;;;;;13.13;7.65;;;0.30;99.90;;;;;;5043659;28;20059;-88
2022/01/24 12:19:02;;;;;;;21.27;10.18;;;0.30;99.90;;;;;;5068600;28;20051;-87
2022/01/24 12:21:33;;;;;;;16.77;7.32;;;0.20;99.90;;;;;;5056326;28;20098;-88
2022/01/24 12:24:17;;;;;;;21.20;10.55;;;0.20;99.90;;;;;;5061424;28;20117;-86
2022/01/24 12:27:03;;;;;;;14.02;7.22;;;0.30;99.90;;;;;;5068392;28;20051;-79
2022/01/24 12:29:44;;;;;;;17.10;8.35;;;0.30;99.90;;;;;;5066204;28;20109;-84
2022/01/24 12:32:23;;;;;;;19.77;8.55;;;0.20;99.90;;;;;;5052965;28;20076;-82
2022/01/24 12:34:52;;;;;;;11.38;7.32;;;0.30;99.90;;;;;;5055716;28;20081;-82
2022/01/24 12:37:36;;;;;;;8.73;6.57;;;0.20;99.90;;;;;;5063587;28;20040;-79
2022/01/24 12:40:11;;;;;;;8.07;4.70;;;0.30;99.90;;;;;;5060819;28;20080;-81
2022/01/24 12:42:49;;;;;;;18.95;17.20;;;0.30;99.90;;;;;;5070392;28;20139;-80
2022/01/24 12:48:16;;;;;;;16.20;7.90;;;0.20;99.90;;;;;;5067429;28;20420;-80
2022/01/24 12:50:48;;;;;;;12.15;7.50;;;0.20;99.90;;;;;;5061228;28;20055;-80
2022/01/24 12:53:17;;;;;;;14.63;8.27;;;0.20;99.90;;;;;;5064629;28;20500;-79
2022/01/24 12:55:59;;;;;;;7.97;4.70;;;0.20;99.90;;;;;;5055943;28;20036;-80
2022/01/24 12:58:32;;;;;;;9.38;5.43;;;0.20;99.90;;;;;;5055795;28;20052;-80
2022/01/24 13:01:00;;;;;;;13.02;7.28;;;0.20;99.90;;;;;;5054717;28;20394;-79
2022/01/24 13:03:27;;;;;;;7.68;4.55;;;0.20;99.90;;;;;;5052573;28;20044;-79
2022/01/24 13:06:21;;;;;;;5.72;4.50;;;0.30;99.90;;;;;;5048862;28;20053;-83
2022/01/24 13:08:57;;;;;;;6.32;4.18;;;0.30;99.90;;;;;;5049325;28;20061;-80
2022/01/24 13:11:29;;;;;;;3.95;3.47;;;0.30;99.90;;;;;;5045508;28;20147;-80
2022/01/24 13:14:08;;;;;;;7.20;4.18;;;0.30;99.90;;;;;;5047882;28;20056;-82
2022/01/24 13:22:31;;;;;;;8.20;5.03;;;0.40;99.90;;;;;;5052346;28;20480;-80
2022/01/24 13:25:14;;;;;;;6.18;4.90;;;0.30;99.90;;;;;;5052306;28;20398;-81
2022/01/24 13:27:49;;;;;;;10.98;5.38;;;0.40;99.90;;;;;;5064206;28;20044;-83
2022/01/24 13:30:23;;;;;;;5.68;4.47;;;0.40;99.90;;;;;;5053079;28;20095;-85
2022/01/24 13:32:53;;;;;;;9.80;5.30;;;0.30;99.90;;;;;;5054908;28;20048;-80
2022/01/24 13:35:26;;;;;;;13.30;5.75;;;0.30;99.90;;;;;;5066372;28;20055;-81
2022/01/24 13:37:59;;;;;;;16.67;6.65;;;0.30;99.90;;;;;;5048551;28;20072;-81
2022/01/24 13:40:40;;;;;;;14.98;5.95;;;0.30;99.90;;;;;;5050307;28;20489;-80
2022/01/24 13:43:11;;;;;;;9.50;5.38;;;0.30;99.90;;;;;;5067106;28;20401;-81
2022/01/24 13:45:45;;;;;;;10.80;6.25;;;0.30;99.90;;;;;;5060204;28;20041;-82
2022/01/24 13:48:22;;;;;;;11.07;6.25;;;0.30;99.90;;;;;;5049717;28;20067;-84
2022/01/24 13:50:51;;;;;;;12.10;5.75;;;0.30;99.90;;;;;;5032775;28;20114;-84
2022/01/24 13:53:31;;;;;;;13.73;6.93;;;0.30;99.90;;;;;;5061891;28;20156;-82
2022/01/24 13:55:59;;;;;;;10.35;6.20;;;0.30;99.90;;;;;;5056366;28;20079;-82
2022/01/24 13:58:30;;;;;;;9.85;5.45;;;0.30;99.90;;;;;;5037547;28;20497;-83
2022/01/24 14:01:00;;;;;;;10.23;5.40;;;0.30;99.90;;;;;;5059254;28;20053;-86
2022/01/24 14:03:28;;;;;;;13.32;6.60;;;0.40;99.90;;;;;;5054083;28;20048;-83
2022/01/24 14:06:15;;;;;;;10.38;6.00;;;0.30;99.90;;;;;;5069117;28;20125;-89
2022/01/24 14:08:44;;;;;;;7.85;5.13;;;0.30;99.90;;;;;;5084454;28;20079;-83
2022/01/24 14:11:17;;;;;;;8.23;5.43;;;0.40;99.90;;;;;;5067283;28;20093;-84
2022/01/24 14:14:04;;;;;;;13.18;10.15;;;0.40;99.90;;;;;;5075488;28;20159;-83
2022/01/24 14:16:45;;;;;;;26.00;23.65;;;0.30;99.90;;;;;;5072398;28;20052;-82
2022/01/24 14:19:13;;;;;;;10.35;5.78;;;0.30;99.90;;;;;;5068808;28;20531;-82
2022/01/24 14:21:43;;;;;;;18.63;16.42;;;0.30;99.90;;;;;;5072421;28;20086;-81
2022/01/24 14:24:11;;;;;;;11.82;6.47;;;0.30;99.90;;;;;;5072112;28;20452;-81
2022/01/24 14:26:48;;;;;;;9.77;6.78;;;0.30;99.90;;;;;;5071865;28;20048;-87
2022/01/24 14:29:19;;;;;;;11.43;7.10;;;0.30;99.90;;;;;;5072793;28;20037;-84